Time;durP1;ratioP1;P1;durP2;ratioP2;P2;SDS_P1;SDS_P2;PMS_P1;PMS_P2;Temp;Humidity;BMP_temperature;BMP_pressure;BME280_temperature;BME280_humidity;BME280_pressure;Samples;Min_cycle;Max_cycle;Signal;HPM_P1;HPM_P2
2022/08/24 00:01:11;;;;;;;18.95;11.38;;;;;;;17.20;100.00;94732.63;5078326;28;20061;-64
2022/08/24 00:03:39;;;;;;;20.00;11.55;;;;;;;17.17;100.00;94732.38;5079303;28;20641;-64
2022/08/24 00:06:11;;;;;;;20.60;11.02;;;;;;;17.15;100.00;94740.53;5078408;28;20048;-64
2022/08/24 00:08:38;;;;;;;21.10;11.82;;;;;;;17.16;100.00;94738.69;5080043;28;20479;-64
2022/08/24 00:11:06;;;;;;;15.43;10.57;;;;;;;17.06;100.00;94725.63;5079166;28;20051;-64
2022/08/24 00:13:34;;;;;;;19.33;11.77;;;;;;;17.07;100.00;94730.63;5076532;28;20055;-64
2022/08/24 00:16:06;;;;;;;21.73;12.48;;;;;;;16.99;100.00;94737.22;5076484;28;20164;-64
2022/08/24 00:18:33;;;;;;;18.83;11.05;;;;;;;16.98;100.00;94743.56;5080872;28;20035;-64
2022/08/24 00:21:02;;;;;;;16.63;10.85;;;;;;;16.95;100.00;94743.31;5079114;28;20052;-65
2022/08/24 00:23:29;;;;;;;23.52;11.52;;;;;;;16.92;100.00;94744.63;5080155;28;20040;-66
2022/08/24 00:25:56;;;;;;;22.95;11.32;;;;;;;16.86;100.00;94740.47;5077899;28;20058;-64
2022/08/24 00:28:23;;;;;;;19.50;11.35;;;;;;;16.82;100.00;94744.69;5076665;28;20057;-64
2022/08/24 00:30:50;;;;;;;14.85;10.48;;;;;;;16.81;100.00;94750.97;5078676;28;20051;-64
2022/08/24 00:33:18;;;;;;;16.77;11.18;;;;;;;16.78;100.00;94748.88;5075851;28;20056;-64
2022/08/24 00:35:45;;;;;;;17.13;10.50;;;;;;;16.70;100.00;94746.84;5076782;28;20051;-64
2022/08/24 00:38:12;;;;;;;16.13;10.38;;;;;;;16.73;100.00;94751.56;5061364;28;20054;-64
2022/08/24 00:40:44;;;;;;;14.82;10.23;;;;;;;16.73;100.00;94756.84;5076976;28;20050;-64
2022/08/24 00:43:11;;;;;;;17.58;10.02;;;;;;;16.72;100.00;94760.50;5078252;28;20048;-64
2022/08/24 00:46:04;;;;;;;19.80;10.25;;;;;;;16.70;100.00;94754.72;5075458;28;20047;-64
2022/08/24 00:48:35;;;;;;;16.90;9.82;;;;;;;16.68;100.00;94754.22;5067994;28;20045;-64
2022/08/24 00:51:26;;;;;;;17.15;10.20;;;;;;;16.68;100.00;94754.22;5058327;28;20556;-64
2022/08/24 00:54:04;;;;;;;16.27;9.38;;;;;;;16.65;100.00;94760.00;5076124;28;20036;-63
2022/08/24 00:56:36;;;;;;;16.77;10.75;;;;;;;16.63;100.00;94753.16;5077295;28;20044;-64
2022/08/24 00:59:11;;;;;;;18.35;9.40;;;;;;;16.59;100.00;94754.78;5077653;28;20044;-64
2022/08/24 01:01:38;;;;;;;14.07;9.48;;;;;;;16.58;100.00;94750.59;5055988;28;20052;-64
2022/08/24 01:04:09;;;;;;;15.23;9.32;;;;;;;16.61;100.00;94760.53;5060844;28;20055;-63
2022/08/24 01:06:35;;;;;;;18.63;10.23;;;;;;;16.60;100.00;94769.50;5078582;28;20433;-64
2022/08/24 01:09:04;;;;;;;16.42;9.25;;;;;;;16.61;100.00;94771.06;5060804;28;20077;-64
2022/08/24 01:11:33;;;;;;;20.20;10.02;;;;;;;16.47;100.00;94759.56;5077909;28;20175;-64
2022/08/24 01:14:03;;;;;;;13.98;8.75;;;;;;;16.59;100.00;94777.66;5078209;28;20062;-64
2022/08/24 01:19:38;;;;;;;12.88;8.07;;;;;;;16.63;100.00;94781.31;5058327;28;20373;-64
2022/08/24 01:22:23;;;;;;;13.32;8.15;;;;;;;16.63;100.00;94784.72;5051302;28;20651;-64
2022/08/24 01:24:50;;;;;;;12.48;8.48;;;;;;;16.55;100.00;94779.25;5077476;28;20040;-63
2022/08/24 01:27:17;;;;;;;17.38;8.20;;;;;;;16.45;100.00;94772.19;5075704;28;20036;-64
2022/08/24 01:29:56;;;;;;;21.40;9.68;;;;;;;16.44;100.00;94781.16;5057961;28;20052;-64
2022/08/24 01:32:24;;;;;;;16.52;8.48;;;;;;;16.38;100.00;94772.47;5054269;28;20103;-65
2022/08/24 01:34:51;;;;;;;15.88;8.68;;;;;;;16.48;100.00;94782.16;5077694;28;20036;-64
2022/08/24 01:37:18;;;;;;;16.15;8.98;;;;;;;16.52;100.00;94783.19;5040556;28;20036;-65
2022/08/24 01:39:47;;;;;;;16.00;9.60;;;;;;;16.49;100.00;94786.34;5077285;28;20043;-64
2022/08/24 01:42:15;;;;;;;12.82;8.85;;;;;;;16.32;100.00;94783.28;5076868;28;20036;-64
2022/08/24 01:44:43;;;;;;;19.10;10.98;;;;;;;16.30;100.00;94806.41;5058987;28;20144;-64
2022/08/24 01:47:14;;;;;;;14.48;10.55;;;;;;;16.19;100.00;94806.44;5061699;28;20040;-64
2022/08/24 01:49:45;;;;;;;22.30;12.65;;;;;;;16.00;100.00;94802.78;5059385;28;20052;-64
2022/08/24 01:52:18;;;;;;;22.23;13.55;;;;;;;15.85;100.00;94801.75;5050443;28;20149;-65
2022/08/24 01:54:46;;;;;;;29.45;13.50;;;;;;;15.92;100.00;94806.75;5072192;28;20071;-64
2022/08/24 01:57:15;;;;;;;28.70;15.23;;;;;;;15.97;100.00;94805.94;5051649;28;20052;-65
2022/08/24 01:59:44;;;;;;;25.05;14.75;;;;;;;16.01;100.00;94805.16;5056959;28;20047;-65
2022/08/24 02:02:34;;;;;;;27.38;13.45;;;;;;;16.03;100.00;94802.28;5052749;28;20064;-64
2022/08/24 02:05:02;;;;;;;31.55;15.52;;;;;;;16.02;100.00;94801.47;5074299;28;20059;-63
2022/08/24 02:07:31;;;;;;;25.75;15.13;;;;;;;16.05;100.00;94810.66;5056210;28;20047;-64
2022/08/24 02:09:58;;;;;;;27.70;15.15;;;;;;;16.00;100.00;94808.03;5066725;28;20072;-64
2022/08/24 02:12:26;;;;;;;20.30;13.27;;;;;;;15.98;100.00;94804.91;5049751;28;20855;-64
2022/08/24 02:14:53;;;;;;;24.45;12.85;;;;;;;15.95;100.00;94811.44;5051046;28;20491;-63
2022/08/24 02:17:20;;;;;;;29.40;13.23;;;;;;;15.95;100.00;94821.19;5055107;28;20045;-64
2022/08/24 02:19:49;;;;;;;22.73;13.65;;;;;;;15.90;100.00;94823.81;5059220;28;20137;-64
2022/08/24 02:22:17;;;;;;;23.40;14.52;;;;;;;15.87;100.00;94827.75;5056260;28;20584;-64
2022/08/24 02:24:44;;;;;;;18.38;11.65;;;;;;;15.85;100.00;94825.41;5063693;28;20131;-63
2022/08/24 02:27:15;;;;;;;28.17;13.75;;;;;;;15.77;100.00;94820.69;5071628;28;20079;-64
2022/08/24 02:29:42;;;;;;;32.53;14.82;;;;;;;15.76;100.00;94824.34;5056093;28;20128;-64
2022/08/24 02:32:11;;;;;;;34.78;14.18;;;;;;;15.73;100.00;94813.56;5059615;28;20048;-63
2022/08/24 02:34:38;;;;;;;44.47;16.55;;;;;;;15.77;100.00;94812.00;5053468;28;20071;-64
2022/08/24 02:37:05;;;;;;;23.35;14.25;;;;;;;15.75;100.00;94817.50;5055554;28;20544;-64
2022/08/24 02:39:32;;;;;;;39.08;15.63;;;;;;;15.72;100.00;94828.53;5055342;28;20605;-64
2022/08/24 02:42:04;;;;;;;42.05;16.83;;;;;;;15.61;100.00;94824.31;5061818;28;20045;-64
2022/08/24 02:44:31;;;;;;;30.67;16.35;;;;;;;15.59;100.00;94823.78;5056655;28;20044;-64
2022/08/24 02:46:59;;;;;;;29.23;16.95;;;;;;;15.61;100.00;94826.94;5059165;28;20131;-64
2022/08/24 02:49:26;;;;;;;27.13;16.25;;;;;;;15.65;100.00;94831.41;5059587;28;20047;-63
2022/08/24 02:51:53;;;;;;;27.27;15.55;;;;;;;15.62;100.00;94824.03;5073879;28;20136;-64
2022/08/24 02:54:21;;;;;;;25.92;15.18;;;;;;;15.62;100.00;94824.03;5057819;28;20044;-64
2022/08/24 02:56:52;;;;;;;29.73;15.77;;;;;;;15.64;100.00;94826.41;5060513;28;20050;-64
2022/08/24 02:59:20;;;;;;;31.30;15.63;;;;;;;15.62;100.00;94820.66;5060231;28;20047;-64
2022/08/24 03:01:48;;;;;;;21.92;15.13;;;;;;;15.71;100.00;94845.31;5058325;28;20045;-64
2022/08/24 03:04:18;;;;;;;26.83;15.88;;;;;;;15.58;100.00;94832.72;5059649;28;20163;-64
2022/08/24 03:06:45;;;;;;;23.33;15.40;;;;;;;15.64;100.00;94847.41;5062938;28;20044;-65
2022/08/24 03:09:13;;;;;;;24.77;14.65;;;;;;;15.63;100.00;94830.09;5056951;28;20044;-65
2022/08/24 03:11:40;;;;;;;23.15;14.75;;;;;;;15.67;100.00;94831.16;5077651;28;20233;-65
2022/08/24 03:14:12;;;;;;;29.13;14.18;;;;;;;15.73;100.00;94826.69;5061624;28;20747;-65
2022/08/24 03:16:39;;;;;;;30.63;15.00;;;;;;;15.75;100.00;94835.88;5072676;28;20041;-65
2022/08/24 03:19:06;;;;;;;26.10;14.77;;;;;;;15.78;100.00;94832.75;5041340;28;20037;-64
2022/08/24 03:21:35;;;;;;;26.35;14.05;;;;;;;15.80;100.00;94841.16;5055552;28;20071;-65
2022/08/24 03:24:02;;;;;;;26.85;14.73;;;;;;;15.83;100.00;94835.38;5075406;28;20612;-66
2022/08/24 03:26:30;;;;;;;24.00;14.65;;;;;;;15.86;100.00;94824.34;5060342;28;20051;-66
2022/08/24 03:28:57;;;;;;;24.60;15.35;;;;;;;15.91;100.00;94825.41;5066472;28;20051;-66
2022/08/24 03:31:26;;;;;;;27.55;14.07;;;;;;;15.92;100.00;94832.19;5055974;28;20117;-66
2022/08/24 03:33:53;;;;;;;22.70;14.57;;;;;;;15.89;100.00;94830.13;5076830;28;20036;-66
2022/08/24 03:36:20;;;;;;;30.73;14.27;;;;;;;15.87;100.00;94830.38;5056238;28;20407;-66
2022/08/24 03:38:47;;;;;;;25.20;15.63;;;;;;;15.86;100.00;94824.34;5075371;28;20047;-66
2022/08/24 03:41:14;;;;;;;28.75;14.43;;;;;;;15.75;100.00;94800.97;5061063;28;20036;-66
2022/08/24 03:43:45;;;;;;;27.58;15.18;;;;;;;15.97;100.00;94824.31;5060749;28;20600;-65
2022/08/24 03:46:21;;;;;;;42.90;17.38;;;;;;;15.99;100.00;94827.47;5077683;28;20433;-65
2022/08/24 03:48:51;;;;;;;34.30;15.48;;;;;;;16.03;100.00;94828.53;5052423;28;20127;-64
2022/08/24 03:51:23;;;;;;;27.13;15.23;;;;;;;15.98;100.00;94836.41;5077110;28;20044;-64
2022/08/24 03:53:52;;;;;;;23.90;14.35;;;;;;;16.03;100.00;94839.03;5075438;28;20043;-64
2022/08/24 03:56:22;;;;;;;24.70;15.73;;;;;;;16.04;100.00;94840.59;5054622;28;20044;-65
2022/08/24 03:58:50;;;;;;;24.30;14.88;;;;;;;16.03;100.00;94833.78;5076797;28;21513;-65
2022/08/24 04:01:17;;;;;;;28.58;14.57;;;;;;;16.00;100.00;94839.56;5060925;28;20040;-65
2022/08/24 04:03:46;;;;;;;29.13;15.75;;;;;;;16.05;100.00;94842.19;5058300;28;20128;-66
2022/08/24 04:06:16;;;;;;;31.30;16.67;;;;;;;16.09;100.00;94843.22;5063401;28;20703;-65
2022/08/24 04:08:44;;;;;;;23.85;13.73;;;;;;;16.14;100.00;94840.59;5056957;28;20028;-65
2022/08/24 04:11:14;;;;;;;29.73;16.27;;;;;;;16.14;100.00;94840.59;5059059;28;20521;-66
2022/08/24 04:13:44;;;;;;;27.05;16.50;;;;;;;16.17;100.00;94840.06;5049755;28;20048;-65
2022/08/24 04:16:13;;;;;;;27.40;15.50;;;;;;;16.22;100.00;94842.69;5071819;28;20126;-65
2022/08/24 04:18:42;;;;;;;30.48;17.25;;;;;;;16.29;100.00;94846.88;5062200;28;20727;-63
2022/08/24 04:21:17;;;;;;;26.95;17.23;;;;;;;16.35;100.00;94837.91;5057132;28;20044;-66
2022/08/24 04:23:44;;;;;;;28.73;15.45;;;;;;;16.38;100.00;94850.53;5078848;28;20044;-66
2022/08/24 04:26:16;;;;;;;28.13;16.10;;;;;;;16.43;100.00;94837.38;5075595;28;20131;-66
2022/08/24 04:29:05;;;;;;;34.25;18.05;;;;;;;16.48;100.00;94840.00;5060911;28;20139;-66
2022/08/24 04:31:39;;;;;;;29.88;16.67;;;;;;;16.58;100.00;94839.19;5052310;28;20095;-66
2022/08/24 04:34:07;;;;;;;24.38;15.23;;;;;;;16.70;100.00;94841.50;5062595;28;20051;-65
2022/08/24 04:36:35;;;;;;;25.90;16.00;;;;;;;16.74;100.00;94832.81;5076630;28;20048;-65
2022/08/24 04:39:04;;;;;;;28.48;15.80;;;;;;;16.81;100.00;94841.19;5045059;28;20130;-65
2022/08/24 04:41:56;;;;;;;25.67;15.98;;;;;;;16.92;100.00;94849.84;5058569;28;20591;-66
2022/08/24 04:44:31;;;;;;;31.23;16.55;;;;;;;16.96;100.00;94840.38;5060758;28;20131;-66
2022/08/24 04:47:00;;;;;;;34.45;16.80;;;;;;;17.10;100.00;94840.56;5073551;28;20105;-65
2022/08/24 04:49:27;;;;;;;34.00;18.58;;;;;;;17.18;100.00;94836.59;5075388;28;20133;-65
2022/08/24 04:51:55;;;;;;;34.20;18.02;;;;;;;17.25;100.00;94837.06;5042772;28;20062;-65
2022/08/24 04:54:22;;;;;;;34.08;18.80;;;;;;;17.29;100.00;94846.00;5077636;28;20162;-65
2022/08/24 04:57:01;;;;;;;34.20;18.95;;;;;;;17.22;100.00;94845.50;5060108;28;20131;-64
2022/08/24 04:59:28;;;;;;;37.15;19.50;;;;;;;17.19;100.00;94838.16;5046899;28;20035;-64
2022/08/24 05:01:55;;;;;;;36.30;19.88;;;;;;;17.28;100.00;94847.03;5061541;28;20048;-64
2022/08/24 05:04:23;;;;;;;35.72;19.15;;;;;;;17.37;100.00;94850.66;5059321;28;20463;-65
2022/08/24 05:06:50;;;;;;;35.13;18.98;;;;;;;17.33;100.00;94849.66;5060303;28;20048;-65
2022/08/24 05:09:19;;;;;;;35.25;20.35;;;;;;;17.43;100.00;94842.75;5056744;28;20097;-64
2022/08/24 05:11:46;;;;;;;37.45;18.98;;;;;;;17.48;100.00;94840.84;5057722;28;20043;-65
2022/08/24 05:14:20;;;;;;;44.38;19.23;;;;;;;17.54;100.00;94839.00;5059565;28;20698;-65
2022/08/24 05:16:53;;;;;;;35.35;18.15;;;;;;;17.56;100.00;94836.88;5076011;28;20729;-65
2022/08/24 05:19:22;;;;;;;36.45;17.60;;;;;;;17.61;100.00;94838.66;5074647;28;20043;-65
2022/08/24 05:21:49;;;;;;;37.60;19.02;;;;;;;17.57;100.00;94818.19;5054573;28;20101;-64
2022/08/24 05:24:18;;;;;;;33.72;18.25;;;;;;;17.72;100.00;94834.91;5069552;28;20680;-64
2022/08/24 05:26:45;;;;;;;30.95;18.38;;;;;;;17.70;100.00;94845.72;5061925;28;20047;-65
2022/08/24 05:29:14;;;;;;;32.13;18.75;;;;;;;17.69;100.00;94841.50;5059039;28;20052;-65
2022/08/24 05:31:47;;;;;;;38.38;17.05;;;;;;;17.64;100.00;94830.22;5065999;28;20044;-66
2022/08/24 05:34:15;;;;;;;36.30;17.67;;;;;;;17.78;100.00;94845.13;5059895;28;20578;-65
2022/08/24 05:36:42;;;;;;;31.75;15.50;;;;;;;17.87;100.00;94849.84;5055279;28;20040;-64
2022/08/24 05:39:44;;;;;;;28.02;16.65;;;;;;;17.77;100.00;94848.84;5014189;28;20049;-65
2022/08/24 05:42:12;;;;;;;29.20;17.05;;;;;;;17.77;100.00;94843.56;5063665;28;20056;-65
2022/08/24 05:44:45;;;;;;;36.10;17.02;;;;;;;17.62;100.00;94841.03;5066325;28;20131;-65
2022/08/24 05:47:14;;;;;;;29.63;16.33;;;;;;;17.66;100.00;94836.78;5058952;28;20066;-65
2022/08/24 05:49:41;;;;;;;26.10;17.20;;;;;;;17.69;100.00;94841.50;5069377;28;20044;-64
2022/08/24 05:52:09;;;;;;;28.13;17.85;;;;;;;17.88;100.00;94843.50;5059548;28;20093;-64
2022/08/24 05:54:36;;;;;;;32.05;16.92;;;;;;;18.05;100.00;94843.88;5061304;28;20049;-66
2022/08/24 05:57:05;;;;;;;30.35;16.63;;;;;;;18.18;100.00;94846.94;5060406;28;20044;-66
2022/08/24 05:59:49;;;;;;;24.25;15.45;;;;;;;18.32;100.00;94834.66;5058552;28;20045;-64
2022/08/24 06:02:17;;;;;;;24.25;16.73;;;;;;;18.57;100.00;94848.66;5078207;28;20135;-65
2022/08/24 06:04:45;;;;;;;26.38;16.85;;;;;;;18.79;100.00;94845.50;5061106;28;20121;-66
2022/08/24 06:07:12;;;;;;;25.52;15.13;;;;;;;18.96;100.00;94845.06;5073443;28;20485;-65
2022/08/24 06:09:43;;;;;;;23.50;14.93;;;;;;;19.16;100.00;94850.09;5057770;28;20708;-65
2022/08/24 06:12:11;;;;;;;23.95;15.05;;;;;;;19.27;100.00;94846.25;5072334;28;20136;-65
2022/08/24 06:14:46;;;;;;;27.42;16.40;;;;;;;19.37;100.00;94839.25;5058464;28;20075;-65
2022/08/24 06:17:15;;;;;;;24.60;15.88;;;;;;;19.51;100.00;94840.09;5061747;28;20139;-65
2022/08/24 06:19:42;;;;;;;24.23;15.13;;;;;;;19.58;100.00;94840.50;5082249;28;20591;-65
2022/08/24 06:22:09;;;;;;;24.02;15.00;;;;;;;19.71;100.00;94838.22;5071382;28;20070;-65
2022/08/24 06:27:25;;;;;;;24.63;13.65;;;;;;;19.66;100.00;94842.53;5065474;28;20044;-65
2022/08/24 06:30:00;;;;;;;25.60;13.75;;;;;;;19.73;100.00;94838.72;5059697;28;20036;-65
2022/08/24 06:32:45;;;;;;;21.42;12.75;;;;;;;19.97;100.00;94842.06;5077468;28;20051;-65
2022/08/24 06:35:24;;;;;;;22.33;12.82;;;;;;;20.08;100.00;94841.88;5059487;28;20043;-65
2022/08/24 06:37:53;;;;;;;19.15;12.85;;;;;;;19.89;100.00;94816.28;5063875;28;20048;-65
2022/08/24 06:40:20;;;;;;;19.70;13.40;;;;;;;20.19;100.00;94840.66;5078192;28;20044;-64
2022/08/24 06:42:47;;;;;;;18.77;12.75;;;;;;;20.27;100.00;94845.25;5064288;28;20040;-64
2022/08/24 06:45:21;;;;;;;18.52;12.55;;;;;;;20.42;100.00;94837.03;5061054;28;20050;-64
2022/08/24 06:47:49;;;;;;;19.20;12.68;;;;;;;20.59;100.00;94851.56;5079046;28;20047;-64
2022/08/24 06:50:18;;;;;;;20.13;12.23;;;;;;;20.63;100.00;94855.22;5060801;28;20089;-65
2022/08/24 06:52:49;;;;;;;21.52;13.07;;;;;;;20.48;100.00;94850.19;5078829;28;20044;-63
2022/08/24 06:55:16;;;;;;;20.67;13.32;;;;;;;20.74;100.00;94864.53;5057227;28;20052;-64
2022/08/24 06:57:43;;;;;;;19.77;12.73;;;;;;;20.84;100.00;94857.47;5075213;28;20600;-64
2022/08/24 07:00:16;;;;;;;22.33;12.55;;;;;;;21.11;100.00;94862.75;5061193;28;20622;-65
2022/08/24 07:02:43;;;;;;;19.27;13.82;;;;;;;21.10;100.00;94845.25;5059401;28;20739;-66
2022/08/24 07:05:10;;;;;;;20.17;13.32;;;;;;;21.28;100.00;94862.09;5061371;28;20139;-64
2022/08/24 07:07:58;;;;;;;23.40;13.73;;;;;;;21.52;100.00;94872.50;5082451;28;20070;-65
2022/08/24 07:10:26;;;;;;;17.33;11.70;;;;;;;21.55;100.00;94874.56;5059119;28;20421;-64
2022/08/24 07:12:54;;;;;;;18.52;9.20;;;;;;;21.54;100.00;94865.03;5059467;28;20048;-64
2022/08/24 07:15:23;;;;;;;17.10;10.18;;;;;;;21.49;100.00;94873.09;5058052;28;20051;-65
2022/08/24 07:18:03;;;;;;;13.60;9.70;;;;;;;21.67;100.00;94873.22;5059184;28;20066;-64
2022/08/24 07:20:31;;;;;;;14.57;10.10;;;;;;;21.85;100.00;94874.94;5059043;28;20771;-65
2022/08/24 07:23:13;;;;;;;13.15;8.95;;;;;;;22.03;100.00;94875.06;5054486;28;20045;-64
2022/08/24 07:25:41;;;;;;;16.75;8.65;;;;;;;22.14;100.00;94884.31;5056720;28;20524;-65
2022/08/24 07:28:15;;;;;;;23.02;10.07;;;;;;;22.27;100.00;94880.84;5058075;28;20044;-65
2022/08/24 07:30:53;;;;;;;13.18;9.10;;;;;;;22.43;100.00;94877.81;5055532;28;20056;-65
2022/08/24 07:33:20;;;;;;;13.23;7.15;;;;;;;22.65;100.00;94885.72;5056361;28;20129;-65
2022/08/24 07:35:48;;;;;;;8.35;6.32;;;;;;;22.86;100.00;94871.91;5050608;28;20129;-64
2022/08/24 07:38:21;;;;;;;10.68;7.25;;;;;;;22.86;100.00;94879.84;5052229;28;20056;-65
2022/08/24 07:40:49;;;;;;;10.25;6.72;;;;;;;23.00;100.00;94871.78;5060607;28;20734;-65
2022/08/24 07:43:36;;;;;;;8.82;6.45;;;;;;;23.08;100.00;94871.84;5058419;28;20041;-65
2022/08/24 07:46:10;;;;;;;6.13;4.97;;;;;;;22.88;98.30;94872.38;5061733;28;20044;-65
2022/08/24 07:48:37;;;;;;;6.10;4.80;;;;;;;22.89;97.75;94868.63;5047126;28;20049;-65
2022/08/24 07:51:14;;;;;;;8.05;4.93;;;;;;;23.14;97.86;94874.34;5059019;28;20140;-65
2022/08/24 07:53:43;;;;;;;5.35;4.05;;;;;;;23.46;96.70;94868.63;5054510;28;20052;-65
2022/08/24 07:56:27;;;;;;;8.23;5.35;;;;;;;23.59;94.80;94869.56;5060550;28;20052;-65
2022/08/24 07:58:56;;;;;;;10.13;4.22;;;;;;;23.52;93.45;94873.78;5047827;28;20048;-65
2022/08/24 08:01:23;;;;;;;7.00;3.72;;;;;;;23.59;91.42;94874.09;5059019;28;20559;-64
2022/08/24 08:03:52;;;;;;;7.00;4.13;;;;;;;23.62;88.30;94868.94;5056480;28;20051;-65
2022/08/24 08:06:20;;;;;;;8.10;4.55;;;;;;;23.82;87.33;94864.91;5059196;28;20040;-65
2022/08/24 08:08:50;;;;;;;7.53;4.10;;;;;;;24.17;86.13;94862.19;5073757;28;20045;-65
2022/08/24 08:11:18;;;;;;;4.57;3.38;;;;;;;24.23;83.32;94860.91;5073336;28;20117;-65
2022/08/24 08:13:45;;;;;;;6.07;4.10;;;;;;;24.41;82.76;94861.63;5059546;28;20166;-65
2022/08/24 08:16:12;;;;;;;6.00;3.95;;;;;;;24.61;79.88;94870.88;5060734;28;20063;-65
2022/08/24 08:18:40;;;;;;;5.63;3.60;;;;;;;24.99;79.56;94864.75;5042909;28;20044;-65
2022/08/24 08:24:13;;;;;;;7.85;4.20;;;;;;;25.16;78.04;94860.41;5060057;28;20048;-65
2022/08/24 08:24:16;;;;;;;6.63;3.55;;;;;;;25.47;78.24;94856.63;5057018;28;20852;-65
2022/08/24 08:26:51;;;;;;;8.00;4.53;;;;;;;25.65;75.90;94855.38;5061758;28;20044;-65
2022/08/24 08:29:40;;;;;;;6.85;3.72;;;;;;;25.57;74.98;94861.59;5056352;28;20442;-65
2022/08/24 08:32:15;;;;;;;10.68;4.13;;;;;;;25.53;74.69;94860.66;5052902;28;20101;-65
2022/08/24 08:34:43;;;;;;;6.45;3.65;;;;;;;25.64;74.97;94856.50;5079964;28;20062;-65
2022/08/24 08:37:11;;;;;;;4.97;3.78;;;;;;;25.82;73.56;94856.34;5075815;28;20035;-65
2022/08/24 08:39:39;;;;;;;5.65;3.85;;;;;;;25.91;73.38;94865.84;5080018;28;20032;-65
2022/08/24 08:42:37;;;;;;;6.00;3.67;;;;;;;25.98;72.73;94861.88;5060598;28;20040;-65
2022/08/24 08:45:26;;;;;;;6.57;4.25;;;;;;;25.74;74.30;94860.66;5056828;28;20758;-65
2022/08/24 08:48:52;;;;;;;8.43;3.97;;;;;;;25.91;73.00;94859.72;5074999;28;20522;-65
2022/08/24 08:51:48;;;;;;;7.05;5.03;;;;;;;26.40;72.14;94862.56;5051366;28;20072;-65
2022/08/24 08:54:58;;;;;;;5.40;4.30;;;;;;;26.83;69.89;94863.97;5077272;28;20147;-65
2022/08/24 08:57:47;;;;;;;8.45;4.05;;;;;;;27.06;69.16;94871.53;5053377;28;20152;-65
2022/08/24 09:00:24;;;;;;;4.60;2.97;;;;;;;26.87;70.40;94862.19;5060592;28;20047;-65
2022/08/24 09:03:21;;;;;;;8.35;3.38;;;;;;;27.02;68.59;94881.34;5075885;28;20044;-65
2022/08/24 09:06:41;;;;;;;9.13;4.60;;;;;;;27.05;70.39;94880.69;5064043;28;20247;-66
2022/08/24 09:09:28;;;;;;;5.47;4.30;;;;;;;27.52;66.82;94885.56;5060217;28;20040;-65
2022/08/24 09:12:36;;;;;;;6.60;3.72;;;;;;;27.78;67.64;94879.00;5076445;28;20862;-65
2022/08/24 09:15:35;;;;;;;7.30;4.13;;;;;;;28.13;68.35;94889.97;5052391;28;20097;-65
2022/08/24 09:18:25;;;;;;;6.53;4.05;;;;;;;28.47;67.75;94897.69;5073765;28;20370;-65
2022/08/24 09:21:02;;;;;;;3.67;3.38;;;;;;;28.80;64.77;94900.09;5059265;28;20051;-65
2022/08/24 09:23:59;;;;;;;5.47;3.95;;;;;;;28.86;62.35;94900.63;5076238;28;20141;-65
2022/08/24 09:26:48;;;;;;;6.35;3.88;;;;;;;28.35;61.10;94891.28;5074732;28;20144;-66
2022/08/24 09:29:22;;;;;;;6.00;3.22;;;;;;;28.42;62.43;94894.16;5076956;28;20632;-66
2022/08/24 09:32:11;;;;;;;7.10;3.60;;;;;;;28.45;60.27;94891.91;5078657;28;20145;-66
2022/08/24 09:34:59;;;;;;;5.20;3.40;;;;;;;28.45;61.40;94889.22;5075965;28;20040;-66
2022/08/24 09:38:04;;;;;;;6.88;3.72;;;;;;;28.44;61.98;94879.66;5079772;28;20040;-66
2022/08/24 09:41:05;;;;;;;13.43;4.07;;;;;;;28.52;63.16;94881.38;5077279;28;20051;-65
2022/08/24 09:43:45;;;;;;;6.22;3.67;;;;;;;28.56;60.94;94876.94;5078175;28;20056;-65
2022/08/24 09:46:35;;;;;;;7.15;3.15;;;;;;;28.73;59.30;94876.56;5075548;28;20512;-65
2022/08/24 09:49:31;;;;;;;5.07;3.13;;;;;;;28.75;58.52;94874.31;5078432;28;20048;-66
2022/08/24 09:52:35;;;;;;;6.85;3.00;;;;;;;28.67;59.72;94867.25;5074355;28;20146;-66
2022/08/24 09:55:35;;;;;;;7.65;3.10;;;;;;;28.82;59.59;94859.56;5080844;28;20048;-65
2022/08/24 09:58:38;;;;;;;4.95;3.25;;;;;;;29.01;59.90;94862.31;5064134;28;20044;-65
2022/08/24 10:01:26;;;;;;;4.53;2.90;;;;;;;29.35;56.03;94842.03;5068005;28;20047;-65
2022/08/24 10:04:13;;;;;;;10.82;3.70;;;;;;;29.57;55.45;94841.66;5081356;28;20055;-65
2022/08/24 10:07:09;;;;;;;4.80;2.75;;;;;;;30.12;55.16;94845.06;5081368;28;20139;-65
2022/08/24 10:09:57;;;;;;;6.20;2.70;;;;;;;30.57;52.09;94854.31;5083174;28;20036;-65
2022/08/24 10:12:34;;;;;;;5.45;2.75;;;;;;;30.83;52.20;94842.09;5080779;28;20059;-64
2022/08/24 10:15:07;;;;;;;6.95;2.67;;;;;;;30.88;52.45;94850.63;5080176;28;20134;-65
2022/08/24 10:18:25;;;;;;;4.72;2.85;;;;;;;30.98;50.73;94845.78;5078986;28;20043;-65
2022/08/24 10:21:12;;;;;;;8.50;3.08;;;;;;;30.91;46.90;94840.28;4982164;28;20503;-65
2022/08/24 10:24:14;;;;;;;4.97;2.92;;;;;;;30.90;47.71;94844.88;5074807;28;20044;-65
2022/08/24 10:27:03;;;;;;;5.40;2.75;;;;;;;31.10;49.90;94837.53;5080860;28;20048;-66
2022/08/24 10:29:54;;;;;;;9.23;2.65;;;;;;;31.20;45.31;94844.19;5081957;28;20040;-65
2022/08/24 10:33:08;;;;;;;8.60;3.80;;;;;;;31.29;48.20;94844.69;5078842;28;20051;-65
2022/08/24 10:35:51;;;;;;;4.15;3.05;;;;;;;31.49;47.31;94841.91;5020167;28;20077;-67
2022/08/24 10:41:49;;;;;;;10.13;3.10;;;;;;;31.63;45.07;94836.69;5080324;28;20074;-64
2022/08/24 10:44:39;;;;;;;7.18;2.80;;;;;;;31.97;43.99;94828.63;5081140;28;20036;-64
2022/08/24 10:47:27;;;;;;;6.88;2.95;;;;;;;32.12;43.94;94822.25;5080096;28;20040;-65
2022/08/24 10:50:06;;;;;;;4.28;2.70;;;;;;;32.36;42.36;94836.38;5079726;28;20759;-65
2022/08/24 10:53:24;;;;;;;10.00;3.67;;;;;;;32.39;40.79;94838.28;5080657;28;20048;-66
2022/08/24 10:56:05;;;;;;;5.90;2.90;;;;;;;32.49;42.52;94832.22;5040082;28;20727;-65
2022/08/24 10:58:37;;;;;;;5.68;3.10;;;;;;;32.78;42.78;94837.88;5082143;28;20044;-65
2022/08/24 11:01:32;;;;;;;7.63;2.90;;;;;;;32.64;39.25;94840.47;5080719;28;20056;-66
2022/08/24 11:04:26;;;;;;;5.38;2.90;;;;;;;32.74;39.49;94831.69;5078897;28;20051;-66
2022/08/24 11:07:19;;;;;;;9.77;2.90;;;;;;;32.76;41.85;94835.56;5079063;28;20576;-65
2022/08/24 11:10:00;;;;;;;7.97;2.83;;;;;;;32.80;39.86;94835.59;5081517;28;20059;-65
2022/08/24 11:12:31;;;;;;;10.32;2.95;;;;;;;32.96;39.34;94838.78;5077280;28;20132;-65
2022/08/24 11:15:03;;;;;;;3.55;2.67;;;;;;;32.95;38.88;94837.25;5076669;28;20067;-66
2022/08/24 11:17:33;;;;;;;;;;;;;;;32.82;39.08;94832.53;5080803;28;20040;-67
2022/08/24 11:20:01;;;;;;;5.13;2.60;;;;;;;32.64;40.95;94835.06;5080102;28;19927;-66
2022/08/24 11:22:40;;;;;;;6.13;3.30;;;;;;;32.31;39.05;94824.00;5078863;28;20131;-66
2022/08/24 11:25:14;;;;;;;13.68;3.25;;;;;;;32.50;42.54;94828.41;5062604;28;20051;-64
2022/08/24 11:27:49;;;;;;;9.63;3.05;;;;;;;32.71;41.59;94827.03;5076583;28;20043;-66
2022/08/24 11:30:19;;;;;;;7.50;3.00;;;;;;;32.80;40.05;94829.44;5080509;28;20070;-66
2022/08/24 11:32:55;;;;;;;8.63;3.05;;;;;;;32.47;39.84;94818.34;5078706;28;20047;-66
2022/08/24 11:35:30;;;;;;;8.25;3.28;;;;;;;32.33;42.42;94812.84;5076786;28;20054;-66
2022/08/24 11:38:06;;;;;;;4.03;3.17;;;;;;;31.93;43.07;94814.34;5077523;28;20857;-66
2022/08/24 11:40:39;;;;;;;8.48;3.60;;;;;;;31.61;44.60;94802.06;5077935;28;20047;-66
2022/08/24 11:43:18;;;;;;;5.50;3.70;;;;;;;31.54;44.62;94806.59;5077344;28;20050;-66
2022/08/24 11:45:51;;;;;;;8.43;3.67;;;;;;;31.35;45.71;94810.16;5076495;28;20055;-67
2022/08/24 11:48:46;;;;;;;8.00;3.70;;;;;;;31.15;45.69;94806.81;5077419;28;20040;-67
2022/08/24 11:51:31;;;;;;;6.78;3.53;;;;;;;31.20;44.91;94809.22;5080886;28;20258;-66
2022/08/24 11:54:23;;;;;;;5.40;3.08;;;;;;;31.24;44.75;94807.34;5076055;28;20609;-66
2022/08/24 11:57:15;;;;;;;6.35;3.13;;;;;;;31.32;45.26;94795.53;5080362;28;20775;-66
2022/08/24 12:00:17;;;;;;;4.07;3.33;;;;;;;31.73;43.48;94809.13;5078373;28;20055;-66
2022/08/24 12:02:54;;;;;;;7.03;4.13;;;;;;;32.18;42.83;94807.31;5045895;28;20051;-66
2022/08/24 12:05:39;;;;;;;8.02;3.70;;;;;;;32.50;41.83;94806.03;5078152;28;20087;-66